| time (UTC) | temp F | wind direction | speed MPH | gust MPH | rain 1hr in | rain 24hr in | rain mn in | humidity % | barometer mb |
| 20260906191815 | 50 | 313 | 0.0 | 0.0 | 0.00 | 0.00 | 0.00 | 90 | 1019.7 |
| 20260906190333 | 50 | 313 | 0.0 | 0.0 | 0.00 | 0.00 | 0.00 | 90 | 1019.5 |
| 20260906184811 | 51 | 313 | 0.0 | 0.0 | 0.00 | 0.00 | 0.00 | 90 | 1019.5 |
| 20260906183332 | 51 | 313 | 0.0 | 0.0 | 0.00 | 0.00 | 0.00 | 90 | 1019.5 |
| 20260906181810 | 51 | 313 | 0.0 | 0.0 | 0.00 | 0.00 | 0.00 | 90 | 1019.4 |
| 20260906180311 | 51 | 313 | 0.0 | 0.0 | 0.00 | 0.00 | 0.00 | 90 | 1019.3 |
| 20260906174830 | 51 | 313 | 0.0 | 0.0 | 0.00 | 0.00 | 0.00 | 89 | 1019.4 |
| 20260906173346 | 51 | 313 | 0.0 | 0.0 | 0.00 | 0.00 | 0.00 | 89 | 1019.3 |
| 20260906171825 | 52 | 313 | 0.0 | 2.0 | 0.00 | 0.00 | 0.00 | 89 | 1019.3 |
| 20260906170323 | 52 | 313 | 1.0 | 2.0 | 0.00 | 0.00 | 0.00 | 89 | 1019.4 |
| 20260906164819 | 52 | 313 | 0.0 | 0.0 | 0.00 | 0.00 | 0.00 | 89 | 1019.3 |
| 20260906163321 | 52 | 313 | 0.0 | 1.0 | 0.00 | 0.00 | 0.00 | 89 | 1019.5 |
| 20260906161818 | 52 | 313 | 0.0 | 2.0 | 0.00 | 0.00 | 0.00 | 88 | 1019.7 |
| 20260906160341 | 52 | 313 | 0.0 | 3.0 | 0.00 | 0.00 | 0.00 | 88 | 1019.7 |
| 20260906154817 | 52 | 313 | 1.0 | 2.0 | 0.00 | 0.00 | 0.00 | 88 | 1019.7 |
| 20260906153313 | 52 | 313 | 0.0 | 3.0 | 0.00 | 0.00 | 0.00 | 88 | 1019.7 |
| 20260906151836 | 53 | 313 | 0.0 | 2.0 | 0.00 | 0.00 | 0.00 | 87 | 1019.8 |
| 20260906150311 | 53 | 313 | 1.0 | 2.0 | 0.00 | 0.00 | 0.00 | 87 | 1020.0 |
| 20260906144828 | 53 | 313 | 0.0 | 1.0 | 0.00 | 0.00 | 0.00 | 87 | 1020.1 |
| 20260906143330 | 53 | 313 | 1.0 | 1.0 | 0.00 | 0.00 | 0.00 | 86 | 1020.1 |
| 20260906141849 | 53 | 313 | 0.0 | 2.0 | 0.00 | 0.00 | 0.00 | 86 | 1020.2 |
| 20260906140329 | 53 | 313 | 1.0 | 2.0 | 0.00 | 0.00 | 0.00 | 85 | 1020.1 |
| 20260906134827 | 54 | 313 | 0.0 | 2.0 | 0.00 | 0.00 | 0.00 | 84 | 1020.1 |
| 20260906133325 | 54 | 313 | 0.0 | 0.0 | 0.00 | 0.00 | 0.00 | 83 | 1020.1 |
| 20260906131848 | 55 | 313 | 0.0 | 2.0 | 0.00 | 0.00 | 0.00 | 82 | 1020.1 |
| 20260906130324 | 56 | 313 | 0.0 | 2.0 | 0.00 | 0.00 | 0.00 | 81 | 1019.9 |
| 20260906124821 | 56 | 313 | 0.0 | 1.0 | 0.00 | 0.00 | 0.00 | 79 | 1020.0 |
| 20260906123322 | 57 | 313 | 1.0 | 2.0 | 0.00 | 0.00 | 0.00 | 77 | 1020.0 |
| 20260906121817 | 58 | 249 | 0.0 | 0.0 | 0.00 | 0.00 | 0.00 | 74 | 1020.0 |
| 20260906120318 | 60 | 194 | 0.0 | 2.0 | 0.00 | 0.00 | 0.00 | 72 | 1020.0 |
| 20260906114816 | 60 | 148 | 2.0 | 5.0 | 0.00 | 0.00 | 0.00 | 71 | 1020.0 |
| 20260906113311 | 60 | 136 | 1.0 | 3.0 | 0.00 | 0.00 | 0.00 | 70 | 1019.9 |
| 20260906111813 | 61 | 193 | 1.0 | 3.0 | 0.00 | 0.00 | 0.00 | 69 | 1019.8 |
| 20260906110311 | 61 | 148 | 1.0 | 3.0 | 0.00 | 0.00 | 0.00 | 69 | 1019.8 |
| 20260906104813 | 61 | 152 | 0.0 | 4.0 | 0.00 | 0.00 | 0.00 | 68 | 1019.6 |
| 20260906103328 | 62 | 161 | 2.0 | 5.0 | 0.00 | 0.00 | 0.00 | 68 | 1019.5 |
| 20260906101826 | 62 | 160 | 2.0 | 11.0 | 0.00 | 0.00 | 0.00 | 68 | 1019.3 |
| 20260906100327 | 62 | 169 | 3.0 | 9.0 | 0.00 | 0.00 | 0.00 | 68 | 1019.2 |
| 20260906094824 | 62 | 142 | 4.0 | 10.0 | 0.00 | 0.00 | 0.00 | 67 | 1019.0 |
| 20260906093322 | 62 | 141 | 3.0 | 12.0 | 0.00 | 0.00 | 0.00 | 68 | 1018.8 |
| 20260906091844 | 62 | 152 | 1.0 | 8.0 | 0.00 | 0.00 | 0.00 | 68 | 1018.6 |
| 20260906090321 | 63 | 197 | 4.0 | 11.0 | 0.00 | 0.00 | 0.00 | 68 | 1018.4 |
| 20260906084823 | 63 | 140 | 4.0 | 12.0 | 0.00 | 0.00 | 0.00 | 67 | 1018.1 |
| 20260906083320 | 63 | 155 | 4.0 | 9.0 | 0.00 | 0.00 | 0.00 | 67 | 1017.9 |
| 20260906081817 | 63 | 152 | 4.0 | 12.0 | 0.00 | 0.00 | 0.00 | 67 | 1017.6 |
| 20260906080318 | 63 | 155 | 3.0 | 11.0 | 0.00 | 0.00 | 0.00 | 67 | 1017.5 |
| 20260906074815 | 63 | 319 | 5.0 | 10.0 | 0.00 | 0.00 | 0.00 | 66 | 1017.1 |
| 20260906073313 | 64 | 148 | 7.0 | 17.0 | 0.00 | 0.00 | 0.00 | 65 | 1016.6 |
| 20260906071813 | 64 | 150 | 5.0 | 9.0 | 0.00 | 0.00 | 0.00 | 65 | 1016.4 |
| 20260906070329 | 65 | 166 | 6.0 | 13.0 | 0.00 | 0.00 | 0.00 | 64 | 1016.0 |
| 20260906064828 | 65 | 153 | 4.0 | 12.0 | 0.00 | 0.00 | 0.00 | 64 | 1015.9 |
| 20260906063325 | 66 | 155 | 4.0 | 12.0 | 0.00 | 0.00 | 0.00 | 63 | 1015.4 |
| 20260906061822 | 66 | 175 | 6.0 | 10.0 | 0.00 | 0.00 | 0.00 | 61 | 1015.1 |
| 20260906060323 | 67 | 146 | 6.0 | 10.0 | 0.00 | 0.00 | 0.00 | 61 | 1015.0 |
| 20260906054842 | 67 | 184 | 5.0 | 14.0 | 0.00 | 0.00 | 0.00 | 60 | 1014.8 |
| 20260906053337 | 68 | 173 | 6.0 | 11.0 | 0.00 | 0.00 | 0.00 | 58 | 1014.6 |
| 20260906051816 | 69 | 169 | 7.0 | 11.0 | 0.00 | 0.00 | 0.00 | 56 | 1014.3 |
| 20260906050313 | 70 | 180 | 5.0 | 15.0 | 0.00 | 0.00 | 0.00 | 55 | 1014.0 |
| 20260906044813 | 71 | 160 | 5.0 | 16.0 | 0.00 | 0.00 | 0.00 | 57 | 1013.8 |
| 20260906043332 | 73 | 142 | 7.0 | 15.0 | 0.00 | 0.00 | 0.00 | 50 | 1013.3 |
| 20260906041826 | 74 | 160 | 6.0 | 17.0 | 0.00 | 0.00 | 0.00 | 49 | 1012.9 |
| 20260906040326 | 75 | 120 | 9.0 | 14.0 | 0.00 | 0.00 | 0.00 | 46 | 1012.7 |
| 20260906034822 | 77 | 149 | 4.0 | 10.0 | 0.00 | 0.00 | 0.00 | 48 | 1012.3 |
| 20260906033316 | 77 | 80 | 3.0 | 15.0 | 0.00 | 0.00 | 0.00 | 50 | 1012.1 |
| 20260906031836 | 78 | 138 | 5.0 | 14.0 | 0.00 | 0.00 | 0.00 | 50 | 1011.9 |
| 20260906030313 | 82 | 186 | 4.0 | 14.0 | 0.00 | 0.00 | 0.00 | 27 | 1011.9 |
| 20260906024812 | 83 | 102 | 1.0 | 12.0 | 0.00 | 0.00 | 0.00 | 24 | 1012.0 |
| 20260906023330 | 83 | 5 | 2.0 | 8.0 | 0.00 | 0.00 | 0.00 | 25 | 1012.1 |
| 20260906021825 | 83 | 156 | 4.0 | 12.0 | 0.00 | 0.00 | 0.00 | 23 | 1012.3 |
| 20260906020325 | 82 | 139 | 3.0 | 11.0 | 0.00 | 0.00 | 0.00 | 28 | 1012.2 |
| 20260906014822 | 83 | 144 | 4.0 | 7.0 | 0.00 | 0.00 | 0.00 | 26 | 1012.3 |
| 20260906013320 | 84 | 130 | 3.0 | 7.0 | 0.00 | 0.00 | 0.00 | 25 | 1012.3 |
| 20260906011824 | 84 | 291 | 3.0 | 7.0 | 0.00 | 0.00 | 0.00 | 20 | 1012.3 |
| 20260906010322 | 83 | 299 | 3.0 | 11.0 | 0.00 | 0.00 | 0.00 | 31 | -110.7 |
| 20260906004846 | 82 | 118 | 3.0 | 7.0 | 0.00 | 0.00 | 0.00 | 50 | 1012.7 |
| 20260906003323 | 80 | 340 | 1.0 | 3.0 | 0.00 | 0.00 | 0.00 | 48 | 1012.9 |
| 20260906001820 | 79 | 174 | 2.0 | 3.0 | 0.00 | 0.00 | 0.00 | 48 | 1013.0 |
| 20260906000322 | 78 | 155 | 0.0 | 2.0 | 0.00 | 0.00 | 0.00 | 53 | 1013.0 |
| 20260905234819 | 77 | 184 | 1.0 | 2.0 | 0.00 | 0.00 | 0.00 | 51 | 1013.0 |
| 20260905233321 | 75 | 184 | 1.0 | 2.0 | 0.00 | 0.00 | 0.00 | 50 | 1013.1 |
| 20260905231819 | 73 | 178 | 1.0 | 2.0 | 0.00 | 0.00 | 0.00 | 58 | 1013.1 |
| 20260905230315 | 72 | 154 | 1.0 | 2.0 | 0.00 | 0.00 | 0.00 | 65 | 1013.0 |
| 20260905224816 | 70 | 191 | 0.0 | 2.0 | 0.00 | 0.00 | 0.00 | 74 | 1012.8 |
| 20260905223315 | 67 | 159 | 4.0 | 5.0 | 0.00 | 0.00 | 0.00 | 75 | 1013.0 |
| 20260905221815 | 65 | 154 | 2.0 | 3.0 | 0.00 | 0.00 | 0.00 | 81 | 1012.9 |
| 20260905220321 | 62 | 322 | 2.0 | 3.0 | 0.00 | 0.00 | 0.00 | 87 | 1012.7 |
| 20260905214822 | 61 | 315 | 1.0 | 3.0 | 0.00 | 0.00 | 0.00 | 88 | 1012.6 |
| 20260905213325 | 59 | 344 | 2.0 | 4.0 | 0.00 | 0.00 | 0.00 | 89 | 1012.4 |
| 20260905211825 | 58 | 335 | 2.0 | 5.0 | 0.00 | 0.00 | 0.00 | 89 | 1012.2 |
| 20260905210321 | 57 | 323 | 2.0 | 3.0 | 0.00 | 0.00 | 0.00 | 89 | 1012.2 |
| 20260905204822 | 56 | 317 | 1.0 | 2.0 | 0.00 | 0.00 | 0.00 | 89 | 1012.1 |
| 20260905203318 | 56 | 317 | 1.0 | 2.0 | 0.00 | 0.00 | 0.00 | 89 | 1011.8 |
| 20260905201819 | 56 | 317 | 1.0 | 2.0 | 0.00 | 0.00 | 0.00 | 88 | 1011.7 |
| 20260905200317 | 56 | 315 | 1.0 | 2.0 | 0.00 | 0.00 | 0.00 | 87 | 1011.7 |
| 20260905194814 | 57 | 309 | 2.0 | 3.0 | 0.00 | 0.00 | 0.00 | 87 | 1011.5 |
| 20260905193315 | 57 | 311 | 0.0 | 0.0 | 0.00 | 0.00 | 0.00 | 87 | 1011.2 |